createdAt,value
2019-05-29T00:00:52.081Z,17.13
2019-05-29T00:03:19.723Z,34.37
2019-05-29T00:05:46.468Z,22.47
2019-05-29T00:08:14.615Z,10.63
2019-05-29T00:10:41.988Z,13.30
2019-05-29T00:13:08.728Z,28.90
2019-05-29T00:15:35.576Z,24.97
2019-05-29T00:18:02.764Z,21.53
2019-05-29T00:20:29.564Z,10.83
2019-05-29T00:22:56.293Z,21.77
2019-05-29T00:25:23.157Z,12.77
2019-05-29T00:27:49.879Z,25.93
2019-05-29T00:30:17.031Z,19.97
2019-05-29T00:32:44.115Z,20.53
2019-05-29T00:35:12.220Z,17.73
2019-05-29T00:37:39.132Z,34.23
2019-05-29T00:40:06.735Z,17.73
2019-05-29T00:42:33.599Z,16.90
2019-05-29T00:45:00.339Z,15.67
2019-05-29T00:47:27.184Z,11.63
2019-05-29T00:49:53.913Z,11.03
2019-05-29T00:52:20.665Z,14.97
2019-05-29T00:54:47.807Z,24.73
2019-05-29T00:57:15.308Z,22.60
2019-05-29T00:59:42.094Z,16.67
2019-05-29T01:02:09.589Z,12.93
2019-05-29T01:04:36.391Z,9.70
2019-05-29T01:07:03.134Z,11.93
2019-05-29T01:09:30.040Z,11.90
2019-05-29T01:11:56.828Z,23.67
2019-05-29T01:14:23.672Z,10.80
2019-05-29T01:16:50.416Z,13.60
2019-05-29T01:19:18.094Z,11.43
2019-05-29T01:21:44.899Z,10.97
2019-05-29T01:24:12.145Z,23.57
2019-05-29T01:26:39.004Z,25.63
2019-05-29T01:29:05.734Z,26.53
2019-05-29T01:31:32.586Z,22.47
2019-05-29T01:33:59.313Z,29.13
2019-05-29T01:36:26.058Z,13.03
2019-05-29T01:38:52.906Z,37.67
2019-05-29T01:41:19.638Z,23.70
2019-05-29T01:43:46.374Z,31.77
2019-05-29T01:46:13.224Z,14.43
2019-05-29T01:48:40.068Z,10.37
2019-05-29T01:51:06.910Z,17.40
2019-05-29T01:53:33.739Z,18.87
2019-05-29T01:56:00.492Z,12.80
2019-05-29T01:58:27.987Z,13.17
2019-05-29T02:00:55.094Z,15.07
2019-05-29T02:03:22.013Z,23.67
2019-05-29T02:05:48.770Z,37.03
2019-05-29T02:08:15.992Z,9.67
2019-05-29T02:10:42.759Z,11.90
2019-05-29T02:13:09.497Z,7.50
2019-05-29T02:15:36.341Z,14.23
2019-05-29T02:18:03.228Z,32.20
2019-05-29T02:20:30.241Z,12.00
2019-05-29T02:22:57.079Z,10.97
2019-05-29T02:25:24.350Z,52.00
2019-05-29T02:27:51.174Z,43.67
2019-05-29T02:30:20.362Z,19.43
2019-05-29T02:32:46.382Z,44.43
2019-05-29T02:35:13.079Z,12.40
2019-05-29T02:37:39.976Z,18.77
2019-05-29T02:40:06.818Z,20.10
2019-05-29T02:42:33.544Z,16.53
2019-05-29T02:45:00.302Z,43.60
2019-05-29T02:47:28.084Z,13.30
2019-05-29T02:49:55.415Z,15.10
2019-05-29T02:52:24.165Z,9.83
2019-05-29T02:54:50.836Z,39.40
2019-05-29T02:57:17.577Z,14.50
2019-05-29T02:59:44.423Z,18.07
2019-05-29T03:02:11.258Z,17.53
2019-05-29T03:04:38.110Z,16.57
2019-05-29T03:07:04.941Z,10.17
2019-05-29T03:09:32.723Z,12.30
2019-05-29T03:12:00.450Z,19.77
2019-05-29T03:14:29.474Z,13.00
2019-05-29T03:16:55.987Z,15.20
2019-05-29T03:19:23.882Z,19.23
2019-05-29T03:21:51.217Z,15.33
2019-05-29T03:24:17.945Z,28.93
2019-05-29T03:26:44.695Z,12.97
2019-05-29T03:29:11.626Z,22.40
2019-05-29T03:31:46.535Z,13.57
2019-05-29T03:34:06.754Z,16.00
2019-05-29T03:36:39.665Z,40.30
2019-05-29T03:39:02.077Z,16.40
2019-05-29T03:41:30.203Z,19.57
2019-05-29T03:43:57.590Z,27.00
2019-05-29T03:46:31.591Z,45.70
2019-05-29T03:48:52.821Z,18.13
2019-05-29T03:51:19.652Z,20.13
2019-05-29T03:53:46.504Z,38.90
2019-05-29T03:56:13.357Z,10.07
2019-05-29T03:58:40.099Z,40.83
2019-05-29T04:01:07.006Z,18.97
2019-05-29T04:03:35.370Z,17.00
2019-05-29T04:06:02.862Z,28.03
2019-05-29T04:08:31.389Z,17.37
2019-05-29T04:10:58.084Z,38.70
2019-05-29T04:13:24.922Z,6.60
2019-05-29T04:15:51.664Z,31.40
2019-05-29T04:18:19.662Z,18.80
2019-05-29T04:20:47.175Z,33.30
2019-05-29T04:23:13.922Z,34.77
2019-05-29T04:25:43.057Z,31.83
2019-05-29T04:28:09.150Z,26.70
2019-05-29T04:30:36.513Z,36.93
2019-05-29T04:33:03.553Z,33.20
2019-05-29T04:35:30.390Z,18.07
2019-05-29T04:37:57.119Z,14.77
2019-05-29T04:40:23.859Z,37.17
2019-05-29T04:42:50.700Z,19.17
2019-05-29T04:45:17.440Z,14.13
2019-05-29T04:47:44.190Z,21.63
2019-05-29T04:50:11.031Z,25.63
2019-05-29T04:52:38.421Z,15.23
2019-05-29T04:55:06.135Z,20.90
2019-05-29T04:57:32.945Z,15.17
2019-05-29T04:59:59.727Z,46.43
2019-05-29T05:02:26.570Z,26.17
2019-05-29T05:04:53.402Z,35.37
2019-05-29T05:07:20.254Z,21.87
2019-05-29T05:09:46.986Z,17.90
2019-05-29T05:12:13.832Z,26.50
2019-05-29T05:14:40.574Z,30.07
2019-05-29T05:17:07.415Z,20.97
2019-05-29T05:19:34.258Z,14.00
2019-05-29T05:22:00.986Z,24.10
2019-05-29T05:24:27.735Z,13.20
2019-05-29T05:26:54.579Z,19.43
2019-05-29T05:29:21.306Z,31.47
2019-05-29T05:31:48.048Z,22.20
2019-05-29T05:34:14.895Z,16.07
2019-05-29T05:36:41.740Z,6.57
2019-05-29T05:39:08.472Z,12.73
2019-05-29T05:41:35.325Z,11.07
2019-05-29T05:44:02.048Z,16.83
2019-05-29T05:46:28.904Z,16.20
2019-05-29T05:48:55.740Z,8.60
2019-05-29T05:51:22.586Z,12.97
2019-05-29T05:53:49.424Z,6.83
2019-05-29T05:56:16.228Z,26.70
2019-05-29T05:58:43.002Z,7.07
2019-05-29T06:01:09.751Z,7.00
2019-05-29T06:03:37.909Z,15.27
2019-05-29T06:06:04.653Z,11.23
2019-05-29T06:08:31.991Z,10.87
2019-05-29T06:10:58.954Z,12.63
2019-05-29T06:13:25.696Z,16.50
2019-05-29T06:15:52.542Z,10.57
2019-05-29T06:18:21.473Z,2.57
2019-05-29T06:20:47.867Z,20.50
2019-05-29T06:23:14.701Z,16.00
2019-05-29T06:25:42.431Z,19.90
2019-05-29T06:28:09.925Z,15.33
2019-05-29T06:30:39.281Z,15.80
2019-05-29T06:33:05.348Z,12.33
2019-05-29T06:35:33.999Z,23.60
2019-05-29T06:38:00.834Z,9.00
2019-05-29T06:40:27.810Z,10.57
2019-05-29T06:42:55.687Z,25.27
2019-05-29T06:45:22.692Z,13.53
2019-05-29T06:47:49.664Z,20.90
2019-05-29T06:50:16.510Z,6.43
2019-05-29T06:52:43.593Z,18.53
2019-05-29T06:55:10.505Z,13.87
2019-05-29T06:57:38.120Z,8.97
2019-05-29T07:00:05.223Z,21.87
2019-05-29T07:02:32.076Z,12.17
2019-05-29T07:04:58.997Z,24.63
2019-05-29T07:07:25.727Z,10.97
2019-05-29T07:09:52.577Z,22.77
2019-05-29T07:12:19.419Z,4.17
2019-05-29T07:14:46.610Z,8.27
2019-05-29T07:17:13.501Z,2.20
2019-05-29T07:19:53.969Z,1.90
2019-05-29T07:22:08.617Z,10.90
2019-05-29T07:24:36.855Z,13.47
2019-05-29T07:27:03.856Z,19.73
2019-05-29T07:29:30.706Z,8.23
2019-05-29T07:31:58.144Z,9.83
2019-05-29T07:34:24.903Z,12.60
2019-05-29T07:36:51.732Z,29.30
2019-05-29T07:39:18.877Z,37.33
2019-05-29T07:41:45.802Z,3.33
2019-05-29T07:44:12.653Z,2.90
2019-05-29T07:46:40.046Z,7.50
2019-05-29T07:49:06.848Z,3.27
2019-05-29T07:51:33.588Z,7.83
2019-05-29T07:54:00.429Z,12.00
2019-05-29T07:56:27.280Z,3.90
2019-05-29T07:59:02.464Z,9.13
2019-05-29T08:01:22.503Z,5.60
2019-05-29T08:03:49.810Z,6.40
2019-05-29T08:06:16.714Z,5.70
2019-05-29T08:08:43.531Z,8.00
2019-05-29T08:11:10.266Z,9.30
2019-05-29T08:13:37.018Z,4.63
2019-05-29T08:16:03.905Z,10.27
2019-05-29T08:18:30.908Z,7.37
2019-05-29T08:20:57.631Z,4.50
2019-05-29T08:23:24.475Z,10.63
2019-05-29T08:25:51.882Z,16.13
2019-05-29T08:28:19.003Z,19.80
2019-05-29T08:30:51.954Z,31.83
2019-05-29T08:33:14.412Z,20.13
2019-05-29T08:35:41.614Z,48.47
2019-05-29T08:38:09.629Z,5.23
2019-05-29T08:40:36.359Z,8.73
2019-05-29T08:43:03.112Z,38.53
2019-05-29T08:45:30.247Z,75.10
2019-05-29T08:47:56.991Z,249.67
2019-05-29T08:50:23.741Z,126.63
2019-05-29T08:52:50.582Z,115.50
2019-05-29T08:55:17.312Z,284.13
2019-05-29T08:57:44.283Z,175.70
2019-05-29T09:00:11.197Z,297.23
2019-05-29T09:02:37.951Z,177.63
2019-05-29T09:05:04.815Z,292.10
2019-05-29T09:07:31.839Z,324.20
2019-05-29T09:09:58.687Z,264.93
2019-05-29T09:12:25.524Z,238.50
2019-05-29T09:14:52.921Z,308.37
2019-05-29T09:17:20.116Z,271.70
2019-05-29T09:19:47.161Z,285.20
2019-05-29T09:22:14.941Z,25.67
2019-05-29T09:24:41.720Z,104.30
2019-05-29T09:27:08.508Z,278.27
2019-05-29T09:29:35.346Z,279.53
2019-05-29T09:32:02.087Z,258.17
2019-05-29T09:34:28.831Z,263.23
2019-05-29T09:36:56.090Z,270.33
2019-05-29T09:39:22.931Z,264.63
2019-05-29T09:41:49.661Z,115.77
2019-05-29T09:44:31.248Z,233.10
2019-05-29T09:46:45.004Z,264.57
2019-05-29T09:49:11.835Z,287.73
2019-05-29T09:51:39.083Z,271.47
2019-05-29T09:54:05.977Z,58.80
2019-05-29T09:56:32.868Z,15.53
2019-05-29T09:59:00.483Z,20.27
2019-05-29T10:01:28.277Z,28.43
2019-05-29T10:03:57.044Z,22.80
2019-05-29T10:06:23.713Z,21.30
2019-05-29T10:08:50.560Z,12.60
2019-05-29T10:11:17.398Z,12.57
2019-05-29T10:13:44.243Z,6.83
2019-05-29T10:16:11.087Z,8.07
2019-05-29T10:18:37.812Z,5.93
2019-05-29T10:21:05.138Z,14.20
2019-05-29T10:23:32.014Z,7.83
2019-05-29T10:26:00.381Z,14.40
2019-05-29T10:28:27.339Z,13.40
2019-05-29T10:30:54.188Z,7.83
2019-05-29T10:33:21.019Z,13.40
2019-05-29T10:35:49.694Z,20.30
2019-05-29T10:38:16.754Z,8.07
2019-05-29T10:40:47.111Z,5.17
2019-05-29T10:43:11.969Z,17.53
2019-05-29T10:45:38.698Z,2.60
2019-05-29T10:48:05.555Z,5.30
2019-05-29T10:50:32.398Z,9.80
2019-05-29T10:52:59.122Z,6.53
2019-05-29T10:55:25.872Z,6.37
2019-05-29T10:57:53.221Z,13.93
2019-05-29T11:00:20.075Z,6.07
2019-05-29T11:02:48.135Z,10.43
2019-05-29T11:05:15.347Z,8.50
2019-05-29T11:07:42.116Z,6.87
2019-05-29T11:10:08.860Z,17.60
2019-05-29T11:12:39.266Z,5.03
2019-05-29T11:15:20.369Z,11.90
2019-05-29T11:17:33.379Z,5.10
2019-05-29T11:20:00.231Z,6.00
2019-05-29T11:22:27.069Z,4.33
2019-05-29T11:24:54.141Z,7.33
2019-05-29T11:27:21.050Z,4.30
2019-05-29T11:29:48.703Z,3.50
2019-05-29T11:32:15.667Z,4.47
2019-05-29T11:34:42.500Z,4.97
2019-05-29T11:37:09.257Z,7.77
2019-05-29T11:39:35.991Z,1.43
2019-05-29T11:42:03.181Z,5.17
2019-05-29T11:44:30.070Z,3.47
2019-05-29T11:46:58.072Z,2.93
2019-05-29T11:49:25.129Z,7.53
2019-05-29T11:51:53.621Z,6.23
2019-05-29T11:54:20.733Z,14.40
2019-05-29T11:56:47.552Z,1.97
2019-05-29T11:59:14.292Z,3.47
2019-05-29T12:01:50.055Z,3.47
2019-05-29T12:04:24.403Z,3.13
2019-05-29T12:06:38.004Z,5.57
2019-05-29T12:09:04.747Z,3.73
2019-05-29T12:11:31.587Z,4.27
2019-05-29T12:13:58.313Z,4.07
2019-05-29T12:16:26.928Z,2.30
2019-05-29T12:18:54.156Z,3.80
2019-05-29T12:21:20.896Z,3.40
2019-05-29T12:23:47.633Z,6.00
2019-05-29T12:26:22.405Z,3.53
2019-05-29T12:28:42.957Z,5.67
2019-05-29T12:31:09.802Z,3.10
2019-05-29T12:33:36.640Z,7.30
2019-05-29T12:36:03.483Z,5.87
2019-05-29T12:38:30.210Z,5.40
2019-05-29T12:40:57.709Z,5.83
2019-05-29T12:43:27.796Z,5.03
2019-05-29T12:45:53.463Z,4.97
2019-05-29T12:48:20.652Z,5.50
2019-05-29T12:50:47.400Z,4.80
2019-05-29T12:53:28.677Z,5.00
2019-05-29T12:55:42.830Z,5.00
2019-05-29T12:58:09.569Z,5.30
2019-05-29T13:00:36.403Z,3.53
2019-05-29T13:03:04.737Z,2.97
2019-05-29T13:05:31.726Z,5.07
2019-05-29T13:07:58.923Z,5.60
2019-05-29T13:10:30.437Z,5.50
2019-05-29T13:13:00.118Z,3.83
2019-05-29T13:15:22.774Z,10.23
2019-05-29T13:17:49.624Z,5.30
2019-05-29T13:20:21.390Z,5.00
2019-05-29T13:22:44.838Z,2.80
2019-05-29T13:25:12.297Z,5.30
2019-05-29T13:27:39.332Z,5.30
2019-05-29T13:30:08.265Z,4.83
2019-05-29T13:32:34.860Z,5.77
2019-05-29T13:35:02.215Z,4.77
2019-05-29T13:37:29.071Z,6.60
2019-05-29T13:39:56.409Z,6.67
2019-05-29T13:42:23.264Z,5.20
2019-05-29T13:44:50.213Z,4.73
2019-05-29T13:47:17.240Z,4.37
2019-05-29T13:49:43.990Z,5.90
2019-05-29T13:52:12.432Z,6.50
2019-05-29T13:54:39.313Z,6.50
2019-05-29T13:57:06.808Z,14.43
2019-05-29T13:59:34.418Z,8.63
2019-05-29T14:02:05.781Z,6.80
2019-05-29T14:04:30.049Z,4.67
2019-05-29T14:06:58.463Z,5.60
2019-05-29T14:09:25.990Z,5.90
2019-05-29T14:11:52.762Z,7.17
2019-05-29T14:14:19.561Z,6.83
2019-05-29T14:16:46.404Z,5.97
2019-05-29T14:19:13.538Z,6.73
2019-05-29T14:21:40.411Z,4.60
2019-05-29T14:24:23.475Z,6.67
2019-05-29T14:26:35.612Z,4.60
2019-05-29T14:29:03.310Z,4.17
2019-05-29T14:31:30.347Z,8.50
2019-05-29T14:33:57.063Z,6.07
2019-05-29T14:36:23.798Z,7.33
2019-05-29T14:38:50.650Z,11.17
2019-05-29T14:41:17.496Z,6.57
2019-05-29T14:43:44.337Z,6.90
2019-05-29T14:46:12.156Z,8.17
2019-05-29T14:48:38.928Z,5.47
2019-05-29T14:51:06.579Z,3.97
2019-05-29T14:53:33.534Z,5.87
2019-05-29T14:56:00.278Z,6.00
2019-05-29T14:58:27.016Z,5.80
2019-05-29T15:00:53.861Z,6.60
2019-05-29T15:03:20.605Z,4.63
2019-05-29T15:05:47.445Z,4.13
2019-05-29T15:08:14.349Z,5.43
2019-05-29T15:10:41.183Z,6.77
2019-05-29T15:13:08.978Z,4.40
2019-05-29T15:15:36.457Z,5.23
2019-05-29T15:18:04.802Z,6.57
2019-05-29T15:20:31.670Z,6.83
2019-05-29T15:22:58.503Z,7.30
2019-05-29T15:25:25.243Z,7.13
2019-05-29T15:27:52.022Z,7.93
2019-05-29T15:30:22.992Z,5.37
2019-05-29T15:32:48.042Z,6.60
2019-05-29T15:35:18.417Z,8.47
2019-05-29T15:37:43.651Z,3.37
2019-05-29T15:40:10.959Z,6.57
2019-05-29T15:42:37.957Z,4.37
2019-05-29T15:45:04.786Z,4.40
2019-05-29T15:47:31.537Z,3.77
2019-05-29T15:49:58.385Z,4.80
2019-05-29T15:52:25.219Z,5.47
2019-05-29T15:54:51.962Z,4.97
2019-05-29T15:57:18.699Z,3.07
2019-05-29T15:59:45.500Z,6.47
2019-05-29T16:02:13.605Z,5.33
2019-05-29T16:07:25.971Z,5.50
2019-05-29T16:09:52.773Z,5.80
2019-05-29T16:12:19.544Z,4.17
2019-05-29T16:14:46.364Z,4.03
2019-05-29T16:17:15.179Z,3.30
2019-05-29T16:19:42.081Z,5.37
2019-05-29T16:22:10.237Z,3.47
2019-05-29T16:24:37.191Z,3.53
2019-05-29T16:27:08.637Z,6.37
2019-05-29T16:29:32.627Z,3.83
2019-05-29T16:31:59.561Z,5.67
2019-05-29T16:34:26.311Z,6.33
2019-05-29T16:36:53.084Z,9.97
2019-05-29T16:39:21.403Z,6.00
2019-05-29T16:41:48.518Z,8.63
2019-05-29T16:44:16.271Z,7.93
2019-05-29T16:46:43.145Z,6.83
2019-05-29T16:49:09.911Z,9.63
2019-05-29T16:51:36.763Z,9.70
2019-05-29T16:54:03.493Z,7.57
2019-05-29T16:56:30.239Z,5.53
2019-05-29T16:58:57.368Z,10.97
2019-05-29T17:01:24.123Z,5.33
2019-05-29T17:03:51.042Z,7.23
2019-05-29T17:06:17.906Z,11.47
2019-05-29T17:08:44.648Z,8.93
2019-05-29T17:11:11.557Z,7.30
2019-05-29T17:13:38.810Z,7.27
2019-05-29T17:16:05.628Z,10.73
2019-05-29T17:18:32.418Z,5.23
2019-05-29T17:20:59.271Z,6.40
2019-05-29T17:23:26.004Z,7.70
2019-05-29T17:25:52.738Z,5.23
2019-05-29T17:28:23.291Z,8.50
2019-05-29T17:30:48.063Z,5.97
2019-05-29T17:33:15.150Z,8.10
2019-05-29T17:35:42.160Z,8.37
2019-05-29T17:38:09.096Z,6.30
2019-05-29T17:40:35.835Z,8.10
2019-05-29T17:43:02.686Z,7.80
2019-05-29T17:45:29.443Z,7.87
2019-05-29T17:47:56.291Z,7.90
2019-05-29T17:50:26.210Z,8.80
2019-05-29T17:52:51.898Z,9.37
2019-05-29T17:55:21.531Z,11.57
2019-05-29T17:57:47.106Z,8.40
2019-05-29T18:00:13.847Z,9.20
2019-05-29T18:02:51.541Z,12.03
2019-05-29T18:05:09.066Z,11.13
2019-05-29T18:07:36.020Z,10.47
2019-05-29T18:10:02.864Z,11.87
2019-05-29T18:12:29.626Z,12.37
2019-05-29T18:14:56.431Z,10.23
2019-05-29T18:17:23.550Z,14.17
2019-05-29T18:19:50.423Z,10.07
2019-05-29T18:22:17.794Z,12.13
2019-05-29T18:24:44.570Z,9.03
2019-05-29T18:27:11.531Z,12.90
2019-05-29T18:29:38.404Z,14.77
2019-05-29T18:32:05.155Z,12.23
2019-05-29T18:34:32.048Z,16.13
2019-05-29T18:36:58.870Z,10.43
2019-05-29T18:39:26.328Z,9.27
2019-05-29T18:41:53.147Z,11.37
2019-05-29T18:44:20.745Z,16.40
2019-05-29T18:46:47.641Z,11.37
2019-05-29T18:49:14.977Z,11.27
2019-05-29T18:51:41.707Z,12.73
2019-05-29T18:54:08.610Z,12.03
2019-05-29T18:56:35.411Z,14.67
2019-05-29T18:59:02.141Z,14.77
2019-05-29T19:01:30.028Z,15.37
2019-05-29T19:03:56.956Z,18.10
2019-05-29T19:06:23.702Z,13.43
2019-05-29T19:08:50.449Z,15.10
2019-05-29T19:11:17.898Z,14.57
2019-05-29T19:13:44.749Z,15.83
2019-05-29T19:16:11.557Z,16.03
2019-05-29T19:18:38.412Z,16.20
2019-05-29T19:21:05.275Z,17.93
2019-05-29T19:23:33.002Z,18.23
2019-05-29T19:26:00.166Z,12.83
2019-05-29T19:28:26.928Z,19.97
2019-05-29T19:30:53.759Z,28.63
2019-05-29T19:33:20.577Z,16.07
2019-05-29T19:35:47.373Z,17.57
2019-05-29T19:38:14.183Z,15.40
2019-05-29T19:40:41.022Z,13.33
2019-05-29T19:43:07.750Z,16.63
2019-05-29T19:45:34.783Z,15.47
2019-05-29T19:48:01.652Z,22.47
2019-05-29T19:50:28.744Z,13.97
2019-05-29T19:52:55.549Z,21.83
2019-05-29T19:55:22.381Z,18.63
2019-05-29T19:57:55.672Z,15.50
2019-05-29T20:00:17.724Z,21.30
2019-05-29T20:02:44.805Z,16.70
2019-05-29T20:05:11.582Z,20.07
2019-05-29T20:07:38.335Z,19.30
2019-05-29T20:10:05.169Z,18.07
2019-05-29T20:12:31.913Z,18.37
2019-05-29T20:14:58.640Z,19.33
2019-05-29T20:17:25.481Z,14.13
2019-05-29T20:19:52.390Z,16.90
2019-05-29T20:22:19.367Z,20.83
2019-05-29T20:24:46.622Z,23.50
2019-05-29T20:27:13.378Z,20.43
2019-05-29T20:29:40.101Z,29.60
2019-05-29T20:32:06.943Z,20.63
2019-05-29T20:34:34.684Z,20.67
2019-05-29T20:37:01.563Z,22.67
2019-05-29T20:39:28.398Z,21.73
2019-05-29T20:41:55.157Z,24.77
2019-05-29T20:44:21.863Z,21.20
2019-05-29T20:46:48.754Z,21.77
2019-05-29T20:49:15.662Z,25.70
2019-05-29T20:51:42.505Z,20.77
2019-05-29T20:54:09.337Z,19.47
2019-05-29T20:56:36.174Z,20.13
2019-05-29T20:59:02.881Z,24.13
2019-05-29T21:01:29.924Z,17.80
2019-05-29T21:03:56.645Z,23.43
2019-05-29T21:06:23.385Z,18.53
2019-05-29T21:08:50.183Z,19.37
2019-05-29T21:11:17.094Z,23.60
2019-05-29T21:13:43.863Z,21.60
2019-05-29T21:16:10.729Z,20.50
2019-05-29T21:18:38.248Z,18.30
2019-05-29T21:21:05.004Z,14.77
2019-05-29T21:23:31.859Z,18.20
2019-05-29T21:25:59.072Z,17.23
2019-05-29T21:28:39.351Z,24.27
2019-05-29T21:30:55.318Z,23.40
2019-05-29T21:33:22.023Z,22.13
2019-05-29T21:35:48.818Z,27.63
2019-05-29T21:38:15.678Z,18.60
2019-05-29T21:40:42.641Z,18.63
2019-05-29T21:43:09.660Z,24.87
2019-05-29T21:45:36.934Z,23.93
2019-05-29T21:48:03.752Z,19.60
2019-05-29T21:50:30.683Z,20.83
2019-05-29T21:52:57.544Z,21.37
2019-05-29T21:55:24.265Z,17.07
2019-05-29T21:57:51.376Z,19.90
2019-05-29T22:00:18.269Z,19.30
2019-05-29T22:02:46.313Z,20.23
2019-05-29T22:05:13.566Z,20.00
2019-05-29T22:07:41.094Z,22.30
2019-05-29T22:10:08.016Z,24.73
2019-05-29T22:12:34.828Z,21.67
2019-05-29T22:15:02.881Z,23.43
2019-05-29T22:17:30.487Z,18.63
2019-05-29T22:19:57.301Z,19.67
2019-05-29T22:22:24.132Z,24.43
2019-05-29T22:24:51.116Z,20.20
2019-05-29T22:27:17.919Z,23.33
2019-05-29T22:29:44.770Z,21.17
2019-05-29T22:32:11.673Z,23.43
2019-05-29T22:34:38.466Z,22.30
2019-05-29T22:37:05.385Z,18.97
2019-05-29T22:39:32.652Z,19.20
2019-05-29T22:41:59.648Z,22.13
2019-05-29T22:44:26.834Z,20.70
2019-05-29T22:46:53.741Z,19.50
2019-05-29T22:49:20.650Z,20.37
2019-05-29T22:51:47.469Z,20.97
2019-05-29T22:54:14.517Z,17.20
2019-05-29T22:56:41.244Z,15.83
2019-05-29T22:59:08.087Z,15.20
2019-05-29T23:01:34.829Z,14.87
2019-05-29T23:04:02.538Z,19.27
2019-05-29T23:06:29.441Z,17.73
2019-05-29T23:08:56.323Z,16.07
2019-05-29T23:11:23.130Z,19.00
2019-05-29T23:13:50.569Z,13.40
2019-05-29T23:16:17.536Z,19.67
2019-05-29T23:18:44.460Z,18.33
2019-05-29T23:21:11.311Z,16.70
2019-05-29T23:23:38.174Z,15.53
2019-05-29T23:26:04.999Z,15.33
2019-05-29T23:28:32.096Z,17.27
2019-05-29T23:30:59.142Z,20.70
2019-05-29T23:33:25.918Z,15.53
2019-05-29T23:35:52.964Z,15.67
2019-05-29T23:38:19.934Z,18.10
2019-05-29T23:40:47.575Z,14.93
2019-05-29T23:43:14.412Z,17.90
2019-05-29T23:45:41.354Z,15.00
2019-05-29T23:48:08.322Z,17.80
2019-05-29T23:50:35.246Z,16.83
2019-05-29T23:53:03.868Z,16.70
2019-05-29T23:55:30.781Z,15.67
2019-05-29T23:57:57.786Z,14.47
